createdAt,value
2022-10-26T00:01:57.312Z,96111.03
2022-10-26T00:04:25.865Z,96107.00
2022-10-26T00:06:55.815Z,96108.06
2022-10-26T00:09:24.280Z,96105.63
2022-10-26T00:11:53.372Z,96109.56
2022-10-26T00:14:21.578Z,96102.03
2022-10-26T00:16:49.753Z,96109.22
2022-10-26T00:19:18.234Z,96107.63
2022-10-26T00:21:46.400Z,96101.25
2022-10-26T00:26:44.061Z,96100.94
2022-10-26T00:29:12.717Z,96098.50
2022-10-26T00:31:40.932Z,96100.59
2022-10-26T00:34:10.461Z,96101.38
2022-10-26T00:36:38.629Z,96104.03
2022-10-26T00:39:06.775Z,96103.00
2022-10-26T00:41:36.479Z,96102.19
2022-10-26T00:44:37.803Z,96108.31
2022-10-26T00:47:06.518Z,96107.50
2022-10-26T00:49:34.731Z,96110.19
2022-10-26T00:52:02.978Z,96111.78
2022-10-26T00:54:31.168Z,96110.63
2022-10-26T00:57:00.781Z,96108.47
2022-10-26T00:59:29.275Z,96103.38
2022-10-26T01:01:57.758Z,96102.59
2022-10-26T01:04:25.949Z,96107.31
2022-10-26T01:06:54.940Z,96102.81
2022-10-26T01:09:23.161Z,96100.38
2022-10-26T01:11:51.349Z,96095.56
2022-10-26T01:14:21.251Z,96097.16
2022-10-26T01:16:56.593Z,96096.91
2022-10-26T01:20:00.164Z,96098.31
2022-10-26T01:22:29.074Z,96098.06
2022-10-26T01:25:04.306Z,96098.31
2022-10-26T01:27:33.733Z,96097.03
2022-10-26T01:30:20.150Z,96097.03
2022-10-26T01:32:53.499Z,96101.31
2022-10-26T01:35:24.035Z,96103.47
2022-10-26T01:37:56.286Z,96105.91
2022-10-26T01:40:26.869Z,96097.69
2022-10-26T01:42:55.596Z,96095.03
2022-10-26T01:45:25.228Z,96097.53
2022-10-26T01:47:53.391Z,96089.78
2022-10-26T01:50:21.562Z,96088.75
2022-10-26T01:52:50.732Z,96093.84
2022-10-26T01:55:52.571Z,96073.22
2022-10-26T01:58:45.916Z,96071.38
2022-10-26T02:01:23.108Z,96069.78
2022-10-26T02:03:52.444Z,96068.97
2022-10-26T02:06:23.836Z,96067.13
2022-10-26T02:09:03.705Z,96058.66
2022-10-26T02:11:39.417Z,96067.53
2022-10-26T02:14:11.548Z,96071.88
2022-10-26T02:16:44.019Z,96057.88
2022-10-26T02:19:14.656Z,96058.28
2022-10-26T02:21:45.786Z,96057.09
2022-10-26T02:24:14.225Z,96055.88
2022-10-26T02:26:42.717Z,96061.81
2022-10-26T02:29:12.705Z,96070.72
2022-10-26T02:31:42.354Z,96058.03
2022-10-26T02:34:12.126Z,96056.34
2022-10-26T02:36:42.994Z,96060.69
2022-10-26T02:39:11.699Z,96059.63
2022-10-26T02:41:40.022Z,96055.13
2022-10-26T02:44:10.014Z,96048.56
2022-10-26T02:46:38.440Z,96047.38
2022-10-26T02:49:08.607Z,96046.59
2022-10-26T02:51:38.804Z,96051.69
2022-10-26T02:54:11.832Z,96051.44
2022-10-26T02:56:43.765Z,96046.94
2022-10-26T02:59:12.002Z,96051.94
2022-10-26T03:01:40.237Z,96049.84
2022-10-26T03:04:10.365Z,96041.84
2022-10-26T03:06:38.662Z,96039.47
2022-10-26T03:09:06.897Z,96041.09
2022-10-26T03:11:35.150Z,96047.31
2022-10-26T03:14:03.517Z,96044.09
2022-10-26T03:16:31.997Z,96035.28
2022-10-26T03:19:00.158Z,96045.31
2022-10-26T03:21:29.955Z,96049.06
2022-10-26T03:23:58.330Z,96046.13
2022-10-26T03:26:26.536Z,96045.88
2022-10-26T03:28:54.722Z,96040.50
2022-10-26T03:31:23.229Z,96040.06
2022-10-26T03:33:51.502Z,96043.34
2022-10-26T03:36:19.861Z,96037.44
2022-10-26T03:38:49.565Z,96042.25
2022-10-26T03:41:17.764Z,96042.41
2022-10-26T03:43:45.955Z,96033.56
2022-10-26T03:46:14.190Z,96042.03
2022-10-26T03:48:42.459Z,96037.22
2022-10-26T03:51:10.751Z,96035.59
2022-10-26T03:53:38.975Z,96041.41
2022-10-26T03:56:09.322Z,96038.28
2022-10-26T03:58:37.768Z,96035.84
2022-10-26T04:01:06.061Z,96031.09
2022-10-26T04:03:34.337Z,96036.72
2022-10-26T04:06:02.632Z,96033.47
2022-10-26T04:08:30.780Z,96029.47
2022-10-26T04:11:02.371Z,96033.75
2022-10-26T04:13:34.132Z,96033.25
2022-10-26T04:16:02.331Z,96031.94
2022-10-26T04:18:30.571Z,96037.88
2022-10-26T04:21:02.315Z,96040.56
2022-10-26T04:23:30.520Z,96034.75
2022-10-26T04:25:59.339Z,96038.59
2022-10-26T04:28:27.607Z,96038.50
2022-10-26T04:30:57.201Z,96037.94
2022-10-26T04:33:25.396Z,96043.19
2022-10-26T04:35:53.656Z,96040.69
2022-10-26T04:38:22.113Z,96038.38
2022-10-26T04:40:51.992Z,96045.09
2022-10-26T04:43:20.229Z,96037.47
2022-10-26T04:45:48.507Z,96033.31
2022-10-26T04:48:18.068Z,96038.19
2022-10-26T04:50:46.263Z,96028.44
2022-10-26T04:53:14.716Z,96026.13
2022-10-26T04:55:42.937Z,96032.91
2022-10-26T04:58:11.099Z,96029.13
2022-10-26T05:00:39.475Z,96028.88
2022-10-26T05:03:08.522Z,96020.59
2022-10-26T05:05:38.706Z,96023.84
2022-10-26T05:08:06.936Z,96026.31
2022-10-26T05:10:35.083Z,96030.59
2022-10-26T05:13:03.277Z,96030.63
2022-10-26T05:15:31.680Z,96033.56
2022-10-26T05:18:00.682Z,96031.16
2022-10-26T05:20:31.182Z,96028.25
2022-10-26T05:23:01.851Z,96029.63
2022-10-26T05:25:30.860Z,96034.13
2022-10-26T05:27:59.896Z,96035.19
2022-10-26T05:30:28.153Z,96041.59
2022-10-26T05:32:56.696Z,96036.78
2022-10-26T05:35:25.863Z,96039.47
2022-10-26T05:37:54.035Z,96037.81
2022-10-26T05:40:24.012Z,96038.09
2022-10-26T05:42:52.545Z,96034.63
2022-10-26T05:45:21.047Z,96044.22
2022-10-26T05:47:49.472Z,96045.84
2022-10-26T05:50:18.085Z,96042.09
2022-10-26T05:52:47.008Z,96042.88
2022-10-26T05:55:16.591Z,96052.78
2022-10-26T05:57:47.224Z,96059.19
2022-10-26T06:00:19.696Z,96055.16
2022-10-26T06:02:59.481Z,96052.78
2022-10-26T06:05:28.933Z,96046.09
2022-10-26T06:07:57.755Z,96055.47
2022-10-26T06:10:26.767Z,96050.16
2022-10-26T06:12:56.949Z,96053.69
2022-10-26T06:15:26.010Z,96048.38
2022-10-26T06:18:00.654Z,96052.41
2022-10-26T06:20:36.142Z,96058.09
2022-10-26T06:23:12.034Z,96057.84
2022-10-26T06:25:45.474Z,96062.94
2022-10-26T06:28:22.833Z,96057.84
2022-10-26T06:30:51.112Z,96063.22
2022-10-26T06:33:28.826Z,96053.06
2022-10-26T06:36:01.584Z,96058.66
2022-10-26T06:38:31.239Z,96059.50
2022-10-26T06:40:59.727Z,96066.75
2022-10-26T06:43:31.149Z,96064.63
2022-10-26T06:46:05.220Z,96069.19
2022-10-26T06:48:36.599Z,96058.19
2022-10-26T06:51:05.417Z,96065.19
2022-10-26T06:53:36.492Z,96066.00
2022-10-26T06:56:05.305Z,96059.31
2022-10-26T06:58:36.285Z,96064.94
2022-10-26T07:01:04.658Z,96063.34
2022-10-26T07:03:32.928Z,96068.94
2022-10-26T07:06:01.093Z,96072.94
2022-10-26T07:08:29.244Z,96069.47
2022-10-26T07:10:58.147Z,96076.97
2022-10-26T07:13:26.408Z,96074.28
2022-10-26T07:15:55.976Z,96080.44
2022-10-26T07:18:24.153Z,96079.09
2022-10-26T07:20:52.347Z,96079.88
2022-10-26T07:23:20.574Z,96082.84
2022-10-26T07:25:48.802Z,96085.75
2022-10-26T07:28:17.048Z,96076.88
2022-10-26T07:30:45.227Z,96077.13
2022-10-26T07:33:15.254Z,96087.84
2022-10-26T07:35:43.777Z,96089.44
2022-10-26T07:38:12.193Z,96083.53
2022-10-26T07:40:40.377Z,96091.03
2022-10-26T07:43:08.551Z,96093.44
2022-10-26T07:45:36.881Z,96095.59
2022-10-26T07:48:05.331Z,96097.75
2022-10-26T07:50:35.214Z,96088.09
2022-10-26T07:53:03.404Z,96097.75
2022-10-26T07:55:31.566Z,96090.78
2022-10-26T07:58:00.111Z,96091.56
2022-10-26T08:00:29.895Z,96097.47
2022-10-26T08:02:58.132Z,96098.81
2022-10-26T08:05:26.784Z,96112.78
2022-10-26T08:07:56.724Z,96105.22
2022-10-26T08:10:24.924Z,96103.34
2022-10-26T08:12:54.217Z,96097.66
2022-10-26T08:15:22.754Z,96103.31
2022-10-26T08:17:51.532Z,96107.56
2022-10-26T08:20:19.835Z,96109.16
2022-10-26T08:22:48.177Z,96099.72
2022-10-26T08:25:20.564Z,96103.44
2022-10-26T08:27:49.860Z,96105.53
2022-10-26T08:30:18.435Z,96104.97
2022-10-26T08:32:46.685Z,96108.47
2022-10-26T08:35:15.072Z,96102.78
2022-10-26T08:37:43.318Z,96106.81
2022-10-26T08:40:13.454Z,96104.13
2022-10-26T08:42:44.951Z,96107.34
2022-10-26T08:45:17.379Z,96108.13
2022-10-26T08:47:46.867Z,96112.97
2022-10-26T08:50:18.163Z,96116.72
2022-10-26T08:52:50.223Z,96119.34
2022-10-26T08:55:20.305Z,96122.22
2022-10-26T08:57:50.261Z,96128.63
2022-10-26T09:00:20.575Z,96126.22
2022-10-26T09:02:51.037Z,96126.47
2022-10-26T09:05:21.653Z,96128.56
2022-10-26T09:07:53.087Z,96118.88
2022-10-26T09:10:30.910Z,96130.38
2022-10-26T09:13:04.225Z,96122.00
2022-10-26T09:15:38.399Z,96126.28
2022-10-26T09:18:13.573Z,96139.44
2022-10-26T09:21:08.334Z,96141.34
2022-10-26T09:23:45.496Z,96138.41
2022-10-26T09:26:29.067Z,96143.28
2022-10-26T09:28:58.903Z,96147.59
2022-10-26T09:31:27.332Z,96156.72
2022-10-26T09:33:55.514Z,96158.34
2022-10-26T09:36:23.826Z,96155.72
2022-10-26T09:38:54.814Z,96155.72
2022-10-26T09:41:27.135Z,96161.41
2022-10-26T09:44:04.545Z,96163.06
2022-10-26T09:46:33.489Z,96159.63
2022-10-26T09:51:36.513Z,96175.28
2022-10-26T09:54:07.064Z,96173.97
2022-10-26T09:56:37.457Z,96179.06
2022-10-26T09:59:07.063Z,96173.72
2022-10-26T10:01:39.991Z,96180.72
2022-10-26T10:04:16.759Z,96184.22
2022-10-26T10:06:45.703Z,96184.25
2022-10-26T10:09:14.919Z,96185.88
2022-10-26T10:11:44.566Z,96183.19
2022-10-26T10:14:17.767Z,96182.13
2022-10-26T10:16:55.604Z,96182.94
2022-10-26T10:19:25.969Z,96180.84
2022-10-26T10:21:56.618Z,96186.75
2022-10-26T10:24:29.789Z,96190.25
2022-10-26T10:26:59.597Z,96189.16
2022-10-26T10:29:29.391Z,96189.13
2022-10-26T10:31:58.076Z,96186.16
2022-10-26T10:34:26.279Z,96185.31
2022-10-26T10:36:54.719Z,96193.06
2022-10-26T10:39:40.083Z,96187.69
2022-10-26T10:42:16.871Z,96191.94
2022-10-26T10:44:46.705Z,96188.06
2022-10-26T10:47:22.469Z,96194.44
2022-10-26T10:49:55.450Z,96186.56
2022-10-26T10:52:25.653Z,96181.38
2022-10-26T10:54:56.087Z,96187.50
2022-10-26T10:57:26.521Z,96187.97
2022-10-26T11:00:00.731Z,96190.56
2022-10-26T11:02:53.631Z,96190.75
2022-10-26T11:05:27.838Z,96186.38
2022-10-26T11:07:59.493Z,96193.56
2022-10-26T11:10:29.096Z,96182.53
2022-10-26T11:12:59.050Z,96195.44
2022-10-26T11:15:29.723Z,96198.16
2022-10-26T11:18:04.141Z,96190.38
2022-10-26T11:20:32.425Z,96191.75
2022-10-26T11:25:37.881Z,96188.19
2022-10-26T11:28:07.384Z,96188.72
2022-10-26T11:30:36.963Z,96188.72
2022-10-26T11:33:06.485Z,96191.41
2022-10-26T11:35:36.978Z,96193.03
2022-10-26T11:38:06.968Z,96181.16
2022-10-26T11:40:37.438Z,96189.22
2022-10-26T11:43:10.201Z,96188.63
2022-10-26T11:45:41.205Z,96193.94
2022-10-26T11:48:15.568Z,96206.25
2022-10-26T11:50:45.948Z,96197.59
2022-10-26T11:53:15.473Z,96204.88
2022-10-26T11:55:43.657Z,96206.22
2022-10-26T11:58:12.210Z,96212.66
2022-10-26T12:00:47.660Z,96222.00
2022-10-26T12:03:18.207Z,96213.03
2022-10-26T12:05:48.070Z,96215.09
2022-10-26T12:08:17.861Z,96214.25
2022-10-26T12:10:49.913Z,96213.09
2022-10-26T12:13:22.723Z,96208.47
2022-10-26T12:16:08.990Z,96210.75
2022-10-26T12:18:57.249Z,96199.53
2022-10-26T12:21:27.730Z,96196.13
2022-10-26T12:23:57.157Z,96196.25
2022-10-26T12:26:52.216Z,96199.38
2022-10-26T12:29:38.445Z,96200.97
2022-10-26T12:32:50.471Z,96208.25
2022-10-26T12:35:41.855Z,96217.50
2022-10-26T12:38:51.074Z,96228.34
2022-10-26T12:41:39.064Z,96239.19
2022-10-26T12:44:33.877Z,96232.28
2022-10-26T12:47:02.059Z,96235.78
2022-10-26T12:49:59.900Z,96231.19
2022-10-26T12:52:41.025Z,96221.56
2022-10-26T12:55:38.436Z,96223.94
2022-10-26T12:59:02.382Z,96231.75
2022-10-26T13:01:57.175Z,96227.25
2022-10-26T13:04:52.724Z,96221.69
2022-10-26T13:07:24.572Z,96220.09
2022-10-26T13:10:00.595Z,96211.19
2022-10-26T13:12:29.330Z,96215.69
2022-10-26T13:15:00.501Z,96213.53
2022-10-26T13:17:29.492Z,96209.16
2022-10-26T13:19:59.161Z,96212.66
2022-10-26T13:22:27.359Z,96212.88
2022-10-26T13:24:59.138Z,96212.66
2022-10-26T13:27:44.670Z,96224.25
2022-10-26T13:30:42.507Z,96217.97
2022-10-26T13:33:16.441Z,96214.72
2022-10-26T13:35:44.622Z,96216.31
2022-10-26T13:38:13.265Z,96214.22
2022-10-26T13:40:42.837Z,96209.56
2022-10-26T13:43:15.931Z,96211.31
2022-10-26T13:45:49.415Z,96222.44
2022-10-26T13:48:19.737Z,96224.84
2022-10-26T13:50:49.396Z,96229.91
2022-10-26T13:53:20.134Z,96239.75
2022-10-26T13:55:51.741Z,96244.06
2022-10-26T13:58:21.804Z,96244.19
2022-10-26T14:01:03.761Z,96241.09
2022-10-26T14:03:32.099Z,96247.41
2022-10-26T14:06:00.307Z,96246.44
2022-10-26T14:08:28.449Z,96240.91
2022-10-26T14:10:59.258Z,96250.66
2022-10-26T14:13:28.262Z,96244.03
2022-10-26T14:15:56.920Z,96254.84
2022-10-26T14:18:26.020Z,96255.19
2022-10-26T14:20:57.664Z,96251.19
2022-10-26T14:23:29.858Z,96247.44
2022-10-26T14:25:59.681Z,96253.88
2022-10-26T14:28:29.990Z,96246.31
2022-10-26T14:31:15.131Z,96251.63
2022-10-26T14:33:46.241Z,96247.28
2022-10-26T14:36:14.387Z,96252.13
2022-10-26T14:38:44.568Z,96247.44
2022-10-26T14:41:15.199Z,96253.00
2022-10-26T14:43:43.988Z,96252.44
2022-10-26T14:46:14.379Z,96258.03
2022-10-26T14:48:43.293Z,96261.53
2022-10-26T14:51:17.972Z,96264.53
2022-10-26T14:53:49.673Z,96262.13
2022-10-26T14:56:25.485Z,96271.59
2022-10-26T14:58:54.304Z,96268.38
2022-10-26T15:01:35.664Z,96272.16
2022-10-26T15:04:05.655Z,96282.75
2022-10-26T15:06:40.955Z,96289.78
2022-10-26T15:09:30.067Z,96288.25
2022-10-26T15:11:59.709Z,96289.88
2022-10-26T15:14:27.945Z,96282.38
2022-10-26T15:16:58.133Z,96284.03
2022-10-26T15:19:26.755Z,96280.31
2022-10-26T15:21:55.063Z,96289.47
2022-10-26T15:24:30.995Z,96299.44
2022-10-26T15:27:02.979Z,96294.13
2022-10-26T15:29:44.399Z,96292.78
2022-10-26T15:32:27.076Z,96302.25
2022-10-26T15:35:29.000Z,96303.91
2022-10-26T15:37:57.395Z,96293.16
2022-10-26T15:42:55.752Z,96297.56
2022-10-26T15:45:24.686Z,96302.44
2022-10-26T15:47:53.961Z,96306.53
2022-10-26T15:50:22.783Z,96315.75
2022-10-26T15:52:51.371Z,96305.31
2022-10-26T15:55:19.868Z,96301.34
2022-10-26T15:57:48.187Z,96309.22
2022-10-26T16:00:18.518Z,96312.78
2022-10-26T16:02:47.110Z,96312.28
2022-10-26T16:05:16.347Z,96318.28
2022-10-26T16:07:46.016Z,96315.91
2022-10-26T16:10:15.987Z,96318.63
2022-10-26T16:12:53.489Z,96325.91
2022-10-26T16:15:25.019Z,96342.59
2022-10-26T16:17:53.791Z,96347.69
2022-10-26T16:20:29.497Z,96344.28
2022-10-26T16:23:09.414Z,96345.63
2022-10-26T16:25:42.624Z,96344.56
2022-10-26T16:28:11.208Z,96340.56
2022-10-26T16:33:13.911Z,96340.56
2022-10-26T16:35:42.139Z,96343.56
2022-10-26T16:38:10.363Z,96342.22
2022-10-26T16:40:38.554Z,96345.44
2022-10-26T16:43:07.021Z,96350.00
2022-10-26T16:45:35.300Z,96350.53
2022-10-26T16:48:07.066Z,96353.50
2022-10-26T16:50:36.416Z,96358.06
2022-10-26T16:53:05.215Z,96353.50
2022-10-26T16:55:33.704Z,96359.13
2022-10-26T16:58:01.936Z,96360.72
2022-10-26T17:00:30.195Z,96365.03
2022-10-26T17:03:00.138Z,96372.56
2022-10-26T17:05:29.770Z,96375.25
2022-10-26T17:07:57.983Z,96370.16
2022-10-26T17:10:27.998Z,96370.16
2022-10-26T17:12:57.067Z,96366.69
2022-10-26T17:15:28.856Z,96370.19
2022-10-26T17:17:57.329Z,96375.00
2022-10-26T17:20:25.520Z,96376.34
2022-10-26T17:22:55.161Z,96379.31
2022-10-26T17:25:23.611Z,96379.31
2022-10-26T17:27:51.814Z,96386.56
2022-10-26T17:30:19.988Z,96388.19
2022-10-26T17:32:48.441Z,96383.88
2022-10-26T17:35:17.082Z,96390.06
2022-10-26T17:37:45.548Z,96396.50
2022-10-26T17:40:15.188Z,96406.19
2022-10-26T17:42:43.414Z,96411.00
2022-10-26T17:45:12.220Z,96419.88
2022-10-26T17:47:40.417Z,96425.25
2022-10-26T17:50:09.297Z,96434.38
2022-10-26T17:52:37.757Z,96437.06
2022-10-26T17:55:06.518Z,96433.03
2022-10-26T17:57:36.180Z,96437.06
2022-10-26T18:00:05.095Z,96439.22
2022-10-26T18:02:40.626Z,96446.19
2022-10-26T18:05:10.037Z,96445.91
2022-10-26T18:07:38.512Z,96445.31
2022-10-26T18:10:32.766Z,96450.97
2022-10-26T18:12:59.028Z,96463.63
2022-10-26T18:15:27.303Z,96464.38
2022-10-26T18:17:58.477Z,96472.97
2022-10-26T18:20:28.094Z,96478.13
2022-10-26T18:22:56.957Z,96474.06
2022-10-26T18:25:25.315Z,96480.50
2022-10-26T18:27:53.497Z,96480.78
2022-10-26T18:30:23.071Z,96482.69
2022-10-26T18:32:51.619Z,96480.53
2022-10-26T18:35:20.056Z,96495.88
2022-10-26T18:37:48.480Z,96489.41
2022-10-26T18:40:17.236Z,96498.59
2022-10-26T18:42:45.424Z,96498.06
2022-10-26T18:45:13.644Z,96504.00
2022-10-26T18:47:43.565Z,96499.94
2022-10-26T18:50:11.766Z,96500.50
2022-10-26T18:52:39.932Z,96508.81
2022-10-26T18:55:09.452Z,96502.91
2022-10-26T18:57:37.612Z,96504.53
2022-10-26T19:00:06.672Z,96514.75
2022-10-26T19:02:34.907Z,96518.78
2022-10-26T19:05:04.468Z,96520.94
2022-10-26T19:07:32.701Z,96515.56
2022-10-26T19:10:01.053Z,96522.00
2022-10-26T19:12:29.295Z,96523.91
2022-10-26T19:14:57.692Z,96526.59
2022-10-26T19:17:25.859Z,96526.84
2022-10-26T19:19:54.051Z,96525.78
2022-10-26T19:22:23.639Z,96527.13
2022-10-26T19:24:51.847Z,96536.53
2022-10-26T19:27:20.443Z,96538.16
2022-10-26T19:29:48.710Z,96539.50
2022-10-26T19:32:16.864Z,96550.78
2022-10-26T19:34:45.433Z,96553.22
2022-10-26T19:37:13.625Z,96561.28
2022-10-26T19:39:43.436Z,96558.84
2022-10-26T19:42:11.675Z,96563.41
2022-10-26T19:44:39.903Z,96568.53
2022-10-26T19:47:08.480Z,96565.81
2022-10-26T19:49:36.658Z,96569.31
2022-10-26T19:52:04.924Z,96577.13
2022-10-26T19:54:33.519Z,96578.75
2022-10-26T19:57:03.204Z,96585.44
2022-10-26T19:59:31.465Z,96586.75
2022-10-26T20:02:00.498Z,96587.28
2022-10-26T20:04:28.688Z,96588.34
2022-10-26T20:06:56.856Z,96592.88
2022-10-26T20:09:25.190Z,96597.72
2022-10-26T20:11:53.368Z,96592.34
2022-10-26T20:14:23.010Z,96602.28
2022-10-26T20:16:51.181Z,96610.34
2022-10-26T20:19:19.655Z,96610.09
2022-10-26T20:21:48.002Z,96610.09
2022-10-26T20:24:16.261Z,96614.13
2022-10-26T20:26:44.690Z,96615.19
2022-10-26T20:29:12.995Z,96612.75
2022-10-26T20:31:42.879Z,96613.03
2022-10-26T20:34:11.093Z,96606.06
2022-10-26T20:36:39.255Z,96606.31
2022-10-26T20:39:08.119Z,96613.81
2022-10-26T20:41:42.579Z,96618.16
2022-10-26T20:44:14.103Z,96617.38
2022-10-26T20:46:44.686Z,96619.25
2022-10-26T20:49:14.859Z,96617.09
2022-10-26T20:52:08.242Z,96623.53
2022-10-26T20:54:36.194Z,96618.72
2022-10-26T20:57:04.823Z,96627.28
2022-10-26T21:02:11.190Z,96634.81
2022-10-26T21:04:39.402Z,96632.69
2022-10-26T21:07:07.623Z,96635.34
2022-10-26T21:09:36.696Z,96632.06
2022-10-26T21:12:05.425Z,96638.25
2022-10-26T21:14:40.556Z,96642.81
2022-10-26T21:17:10.976Z,96645.00
2022-10-26T21:19:39.164Z,96644.44
2022-10-26T21:22:07.376Z,96643.94
2022-10-26T21:27:05.101Z,96650.38
2022-10-26T21:29:33.579Z,96651.22
2022-10-26T21:32:01.802Z,96658.47
2022-10-26T21:34:31.450Z,96649.84
2022-10-26T21:36:59.672Z,96654.97
2022-10-26T21:39:27.901Z,96663.00
2022-10-26T21:41:56.366Z,96668.63
2022-10-26T21:44:40.046Z,96666.75
2022-10-26T21:47:09.914Z,96669.69
2022-10-26T21:49:39.509Z,96671.50
2022-10-26T21:52:07.864Z,96675.00
2022-10-26T21:54:37.393Z,96673.94
2022-10-26T21:57:05.699Z,96675.50
2022-10-26T21:59:33.907Z,96669.59
2022-10-26T22:02:02.306Z,96659.94
2022-10-26T22:04:30.673Z,96677.69
2022-10-26T22:07:00.287Z,96672.28
2022-10-26T22:09:28.764Z,96673.59
2022-10-26T22:11:56.987Z,96680.81
2022-10-26T22:14:25.249Z,96678.69
2022-10-26T22:16:53.524Z,96682.75
2022-10-26T22:19:21.794Z,96675.19
2022-10-26T22:21:50.285Z,96682.69
2022-10-26T22:24:19.968Z,96679.69
2022-10-26T22:26:48.458Z,96681.50
2022-10-26T22:29:16.655Z,96692.75
2022-10-26T22:31:44.827Z,96687.13
2022-10-26T22:34:15.529Z,96685.44
2022-10-26T22:36:45.087Z,96682.25
2022-10-26T22:39:13.412Z,96689.44
2022-10-26T22:41:42.998Z,96689.66
2022-10-26T22:44:11.173Z,96682.66
2022-10-26T22:46:39.640Z,96687.69
2022-10-26T22:49:07.819Z,96694.69
2022-10-26T22:51:36.757Z,96694.69
2022-10-26T22:54:05.691Z,96698.44
2022-10-26T22:56:34.753Z,96701.38
2022-10-26T22:59:04.413Z,96702.94
2022-10-26T23:01:33.699Z,96703.22
2022-10-26T23:04:02.244Z,96693.53
2022-10-26T23:06:31.213Z,96696.22
2022-10-26T23:08:59.542Z,96698.59
2022-10-26T23:11:28.370Z,96704.47
2022-10-26T23:13:56.595Z,96707.97
2022-10-26T23:16:26.620Z,96709.56
2022-10-26T23:18:57.411Z,96697.75
2022-10-26T23:23:55.185Z,96704.03
2022-10-26T23:26:23.470Z,96711.69
2022-10-26T23:28:51.650Z,96708.66
2022-10-26T23:31:21.045Z,96714.22
2022-10-26T23:33:52.458Z,96715.97
2022-10-26T23:36:20.821Z,96720.91
2022-10-26T23:38:49.058Z,96717.06
2022-10-26T23:41:17.267Z,96719.69
2022-10-26T23:43:45.765Z,96715.00
2022-10-26T23:46:14.097Z,96722.88
2022-10-26T23:48:42.511Z,96725.19
2022-10-26T23:51:12.155Z,96726.72
2022-10-26T23:53:40.374Z,96719.13
2022-10-26T23:56:08.998Z,96730.91
2022-10-26T23:58:37.564Z,96723.59
